Saturday, October 20, 2018, 9:36 PM EDT
Back to Local

KACK, Nantucket Memorial Airport

Location: Nantucket, MA, United States Lat: 41.25
Local Time: 9:36 PM EDT ( 1:36 GMT) Lon: -70.067
Time Zone: US/Eastern Elev: 49 ft

Show me the last for .
Show Decoded

2018-10-20 20:53 METAR KACK 210053Z AUTO 26008KT 10SM SCT075 14/11 A2959 RMK AO2 SLP019 T01390111
                 =
2018-10-20 19:53 METAR KACK 202353Z 26009KT 10SM OVC075 14/11 A2960 RMK AO2 SLP024 T01440111
                 10161 20139 52006 =
2018-10-20 18:53 METAR KACK 202253Z 25009KT 10SM BKN070 14/11 A2960 RMK AO2 SLP023 T01440111 =
2018-10-20 17:53 METAR KACK 202153Z 26010KT 10SM CLR 14/11 A2959 RMK AO2 SLP018 T01440111 =
2018-10-20 16:53 METAR KACK 202053Z AUTO 26008KT 10SM CLR 15/12 A2958 RMK AO2 SLP017 T01500117
                 58018 =
2018-10-20 15:53 METAR KACK 201953Z AUTO 26011KT 10SM FEW036 15/12 A2961 RMK AO2 SLP025 T01500117
                 =
2018-10-20 14:53 METAR KACK 201853Z AUTO 25016G21KT 10SM SCT024 OVC030 16/12 A2962 RMK AO2 SLP029
                 T01610122 =
2018-10-20 13:53 METAR KACK 201753Z 24017KT 9SM OVC060 16/13 A2964 RMK AO2 SLP035 60013 T01610128
                 10161 20144 58031 =
2018-10-20 12:53 METAR KACK 201653Z 25013KT 10SM FEW011 OVC023 15/13 A2967 RMK AO2 PK WND
                 23027/1558 RAB29E39 SLP045 P0000 T01500133 =
2018-10-20 11:53 METAR KACK 201553Z 23017G26KT 9SM BKN030 BKN035 OVC046 16/13 A2970 RMK AO2 PK
                 WND 23026/1548 SLP058 T01610133 =
2018-10-20 10:53 METAR KACK 201453Z 26013G22KT 6SM BR FEW013 BKN047 OVC060 16/14 A2973 RMK AO2
                 RAE24 SLP067 P0000 60013 T01560139 58009 =
2018-10-20 09:53 METAR KACK 201353Z 24011KT 3SM -RA BR SCT038 BKN048 OVC060 14/13 A2975 RMK AO2
                 SLP075 P0007 T01440133 =
2018-10-20 09:14 METAR KACK 201314Z 26013KT 3SM -RA BR BKN015 OVC026 14/13 A2976 RMK AO2 P0006
                 T01440133 =
2018-10-20 09:00 METAR KACK 201300Z 26016G22KT 2SM +RA BR OVC015 14/13 A2976 RMK AO2 P0005
                 T01440133 =
2018-10-20 08:53 METAR KACK 201253Z 25017KT 2SM RA BR BKN013 OVC020 15/13 A2976 RMK AO2 PK WND
                 22027/1219 RAE04B26 SLP077 P0006 T01500133 =
2018-10-20 08:50 METAR KACK 201250Z 25015KT 2SM +RA BR SCT013 BKN018 OVC025 15/13 A2976 RMK AO2
                 PK WND 22027/1219 RAE04B26 P0006 =
2018-10-20 07:53 METAR KACK 201153Z 21019G28KT 7SM -RA FEW015 OVC100 16/13 A2975 RMK AO2 PK WND
                 22028/1114 RAE1059B30 SLP075 P0001 60001 70001 T01610133 10167 20156 58024 =
2018-10-20 06:53 METAR KACK 201053Z 22020G28KT 10SM -RA FEW065 OVC100 16/13 A2977 RMK AO2 PK WND
                 22028/1052 RAB30 SLP082 P0000 T01610133 =
2018-10-20 05:53 METAR KACK 200953Z 23020G27KT 10SM FEW060 BKN090 OVC110 16/13 A2981 RMK AO2 PK
                 WND 22027/0948 RAB04E46 SLP093 P0000 T01610128 =
2018-10-20 04:53 METAR KACK 200853Z AUTO 22021G26KT 10SM SCT042 SCT050 BKN070 16/13 A2982 RMK AO2
                 PK WND 22026/0852 SLP099 T01610133 56028 =
2018-10-20 04:11 METAR KACK 200811Z AUTO 22016KT 9SM SCT024 BKN037 BKN055 16/13 A2984 RMK AO2
                 T01610133 =
2018-10-20 03:53 METAR KACK 200753Z AUTO 22015G22KT 10SM BKN024 BKN029 OVC100 16/13 A2984 RMK AO2
                 SLP106 T01610133 =
2018-10-20 03:17 METAR KACK 200717Z AUTO 22014KT 10SM BKN027 OVC033 16/13 A2987 RMK AO2 T01610128
                 =
2018-10-20 02:53 METAR KACK 200653Z AUTO 22015G24KT 10SM BKN033 OVC039 16/12 A2988 RMK AO2 SLP116
                 T01610122 =
2018-10-20 01:53 METAR KACK 200553Z AUTO 21018G25KT 10SM BKN036 16/12 A2991 RMK AO2 PK WND
                 20028/0530 SLP127 T01560117 10156 20139 58028 =
2018-10-20 00:53 METAR KACK 200453Z AUTO 22022G33KT 10SM CLR 15/09 A2993 RMK AO2 PK WND
                 22033/0450 SLP135 T01500089 401500044 =
2018-10-19 23:53 METAR KACK 200353Z AUTO 22022G28KT 10SM FEW029 14/09 A2997 RMK AO2 PK WND
                 23031/0301 SLP150 T01440094 =
2018-10-19 23:04 METAR KACK 200304Z AUTO 23023G31KT 10SM SCT031 14/09 A2999 RMK AO2 PK WND
                 23031/0301 T01440089 =
2018-10-19 22:53 METAR KACK 200253Z AUTO 23021G31KT 10SM BKN029 14/09 A2999 RMK AO2 PK WND
                 23033/0224 SLP155 T01440089 58018 =
2018-10-19 22:39 METAR KACK 200239Z AUTO 22022G32KT 10SM BKN028 15/09 A2999 RMK AO2 PK WND
                 23033/0224 T01500094 =
2018-10-19 21:53 METAR KACK 200153Z AUTO 22024G29KT 10SM CLR 14/09 A3001 RMK AO2 PK WND
                 23031/0137 SLP162 T01440094 =

Support USWX by starting your Amazon purchase here.